Terminal Aerodrome Forecast
Issued by NWS

Home | Current Version | Previous Version | Text Only | Print | Product List | Glossary On
Versions: 1 2 3 4 5 6 7 8 9 10 11 12 13 14 15 16 17 18 19 20 21 22
000
FTUS41 KBGM 141100
TAFELM
TAF
KELM 141125Z 1412/1512 00000KT 1/4SM FG VV001
      TEMPO 1413/1414 2SM BR SCT005 BKN015
     FM141400 18004KT 6SM HZ BKN050
      TEMPO 1420/1424 4SM -TSRA BKN025CB
     FM150400 VRB03KT 4SM BR SCT002
     FM150700 VRB03KT 1/2SM FG VV003=

USA.gov is the U.S. government's official web portal to all federal, state and local government web resources and services.